sensor_id;sensor_type;location;lat;lon;timestamp;temperature;humidity
15131;DHT22;7666;50.920;4.628;2023-05-10T00:01:16;13.40;99.90
15131;DHT22;7666;50.920;4.628;2023-05-10T00:04:01;13.40;99.90
15131;DHT22;7666;50.920;4.628;2023-05-10T00:06:47;13.40;99.90
15131;DHT22;7666;50.920;4.628;2023-05-10T00:09:33;13.40;99.90
15131;DHT22;7666;50.920;4.628;2023-05-10T00:12:19;13.40;99.90
15131;DHT22;7666;50.920;4.628;2023-05-10T00:15:06;13.40;99.90
15131;DHT22;7666;50.920;4.628;2023-05-10T00:17:52;13.40;99.90
15131;DHT22;7666;50.920;4.628;2023-05-10T00:20:38;13.40;99.90
15131;DHT22;7666;50.920;4.628;2023-05-10T00:23:24;13.50;99.90
15131;DHT22;7666;50.920;4.628;2023-05-10T00:26:10;13.50;99.90
15131;DHT22;7666;50.920;4.628;2023-05-10T00:28:56;13.50;99.90
15131;DHT22;7666;50.920;4.628;2023-05-10T00:31:44;13.50;99.90
15131;DHT22;7666;50.920;4.628;2023-05-10T00:34:30;13.40;99.90
15131;DHT22;7666;50.920;4.628;2023-05-10T00:37:16;13.50;99.90
15131;DHT22;7666;50.920;4.628;2023-05-10T00:40:02;13.40;99.90
15131;DHT22;7666;50.920;4.628;2023-05-10T00:42:48;13.40;99.90
15131;DHT22;7666;50.920;4.628;2023-05-10T00:45:35;13.40;99.90
15131;DHT22;7666;50.920;4.628;2023-05-10T00:48:22;13.50;99.90
15131;DHT22;7666;50.920;4.628;2023-05-10T00:51:08;13.40;99.90
15131;DHT22;7666;50.920;4.628;2023-05-10T00:53:54;13.40;99.90
15131;DHT22;7666;50.920;4.628;2023-05-10T00:56:41;13.40;99.90
15131;DHT22;7666;50.920;4.628;2023-05-10T00:59:28;13.40;99.90
15131;DHT22;7666;50.920;4.628;2023-05-10T01:02:14;13.40;99.90
15131;DHT22;7666;50.920;4.628;2023-05-10T01:05:02;13.40;99.90
15131;DHT22;7666;50.920;4.628;2023-05-10T01:07:49;13.40;99.90
15131;DHT22;7666;50.920;4.628;2023-05-10T01:10:35;13.40;99.90
15131;DHT22;7666;50.920;4.628;2023-05-10T01:13:39;13.40;99.90
15131;DHT22;7666;50.920;4.628;2023-05-10T01:16:29;13.50;99.90
15131;DHT22;7666;50.920;4.628;2023-05-10T01:19:23;13.40;99.90
15131;DHT22;7666;50.920;4.628;2023-05-10T01:25:48;13.40;99.90
15131;DHT22;7666;50.920;4.628;2023-05-10T01:47:17;13.40;99.90
15131;DHT22;7666;50.920;4.628;2023-05-10T01:50:15;13.40;99.90
15131;DHT22;7666;50.920;4.628;2023-05-10T01:53:06;13.40;99.90
15131;DHT22;7666;50.920;4.628;2023-05-10T01:55:55;13.40;99.90
15131;DHT22;7666;50.920;4.628;2023-05-10T01:58:43;13.40;99.90
15131;DHT22;7666;50.920;4.628;2023-05-10T02:01:32;13.30;99.90
15131;DHT22;7666;50.920;4.628;2023-05-10T02:04:19;13.30;99.90
15131;DHT22;7666;50.920;4.628;2023-05-10T02:07:08;13.30;99.90
15131;DHT22;7666;50.920;4.628;2023-05-10T02:09:55;13.30;99.90
15131;DHT22;7666;50.920;4.628;2023-05-10T02:12:43;13.30;99.90
15131;DHT22;7666;50.920;4.628;2023-05-10T02:15:30;13.30;99.90
15131;DHT22;7666;50.920;4.628;2023-05-10T02:18:18;13.30;99.90
15131;DHT22;7666;50.920;4.628;2023-05-10T02:21:04;13.30;99.90
15131;DHT22;7666;50.920;4.628;2023-05-10T02:23:52;13.20;99.90
15131;DHT22;7666;50.920;4.628;2023-05-10T02:26:39;13.20;99.90
15131;DHT22;7666;50.920;4.628;2023-05-10T02:29:26;13.20;99.90
15131;DHT22;7666;50.920;4.628;2023-05-10T02:32:14;13.20;99.90
15131;DHT22;7666;50.920;4.628;2023-05-10T02:35:02;13.20;99.90
15131;DHT22;7666;50.920;4.628;2023-05-10T02:37:48;13.20;99.90
15131;DHT22;7666;50.920;4.628;2023-05-10T02:40:37;13.20;99.90
15131;DHT22;7666;50.920;4.628;2023-05-10T02:43:24;13.20;99.90
15131;DHT22;7666;50.920;4.628;2023-05-10T02:46:11;13.20;99.90
15131;DHT22;7666;50.920;4.628;2023-05-10T02:48:57;13.20;99.90
15131;DHT22;7666;50.920;4.628;2023-05-10T02:51:51;13.20;99.90
15131;DHT22;7666;50.920;4.628;2023-05-10T02:54:44;13.20;99.90
15131;DHT22;7666;50.920;4.628;2023-05-10T02:57:34;13.20;99.90
15131;DHT22;7666;50.920;4.628;2023-05-10T03:00:21;13.20;99.90
15131;DHT22;7666;50.920;4.628;2023-05-10T03:03:07;13.20;99.90
15131;DHT22;7666;50.920;4.628;2023-05-10T03:05:54;13.20;99.90
15131;DHT22;7666;50.920;4.628;2023-05-10T03:08:41;13.20;99.90
15131;DHT22;7666;50.920;4.628;2023-05-10T03:17:29;13.20;99.90
15131;DHT22;7666;50.920;4.628;2023-05-10T03:20:29;13.20;99.90
15131;DHT22;7666;50.920;4.628;2023-05-10T03:23:27;13.20;99.90
15131;DHT22;7666;50.920;4.628;2023-05-10T03:26:22;13.20;99.90
15131;DHT22;7666;50.920;4.628;2023-05-10T03:29:11;13.20;99.90
15131;DHT22;7666;50.920;4.628;2023-05-10T03:31:59;13.20;99.90
15131;DHT22;7666;50.920;4.628;2023-05-10T03:34:45;13.20;99.90
15131;DHT22;7666;50.920;4.628;2023-05-10T03:37:31;13.10;99.90
15131;DHT22;7666;50.920;4.628;2023-05-10T03:40:17;13.10;99.90
15131;DHT22;7666;50.920;4.628;2023-05-10T03:43:03;13.10;99.90
15131;DHT22;7666;50.920;4.628;2023-05-10T03:45:49;13.10;99.90
15131;DHT22;7666;50.920;4.628;2023-05-10T03:48:35;13.10;99.90
15131;DHT22;7666;50.920;4.628;2023-05-10T03:51:21;13.10;99.90
15131;DHT22;7666;50.920;4.628;2023-05-10T03:54:07;13.10;99.90
15131;DHT22;7666;50.920;4.628;2023-05-10T03:56:53;13.10;99.90
15131;DHT22;7666;50.920;4.628;2023-05-10T03:59:39;13.10;99.90
15131;DHT22;7666;50.920;4.628;2023-05-10T04:02:25;13.10;99.90
15131;DHT22;7666;50.920;4.628;2023-05-10T04:05:11;13.00;99.90
15131;DHT22;7666;50.920;4.628;2023-05-10T04:07:58;13.00;99.90
15131;DHT22;7666;50.920;4.628;2023-05-10T04:10:44;13.00;99.90
15131;DHT22;7666;50.920;4.628;2023-05-10T04:13:30;12.90;99.90
15131;DHT22;7666;50.920;4.628;2023-05-10T04:16:16;12.90;99.90
15131;DHT22;7666;50.920;4.628;2023-05-10T04:19:02;12.90;99.90
15131;DHT22;7666;50.920;4.628;2023-05-10T04:21:48;12.90;99.90
15131;DHT22;7666;50.920;4.628;2023-05-10T04:24:34;12.90;99.90
15131;DHT22;7666;50.920;4.628;2023-05-10T04:27:20;12.90;99.90
15131;DHT22;7666;50.920;4.628;2023-05-10T04:30:07;12.80;99.90
15131;DHT22;7666;50.920;4.628;2023-05-10T04:32:53;12.80;99.90
15131;DHT22;7666;50.920;4.628;2023-05-10T04:35:39;12.90;99.90
15131;DHT22;7666;50.920;4.628;2023-05-10T04:38:25;12.90;99.90
15131;DHT22;7666;50.920;4.628;2023-05-10T04:41:12;12.90;99.90
15131;DHT22;7666;50.920;4.628;2023-05-10T04:43:58;12.90;99.90
15131;DHT22;7666;50.920;4.628;2023-05-10T04:46:44;12.90;99.90
15131;DHT22;7666;50.920;4.628;2023-05-10T04:49:30;12.80;99.90
15131;DHT22;7666;50.920;4.628;2023-05-10T04:52:16;12.80;99.90
15131;DHT22;7666;50.920;4.628;2023-05-10T04:55:03;12.80;99.90
15131;DHT22;7666;50.920;4.628;2023-05-10T04:57:50;12.70;99.90
15131;DHT22;7666;50.920;4.628;2023-05-10T05:00:36;12.70;99.90
15131;DHT22;7666;50.920;4.628;2023-05-10T05:03:22;12.70;99.90
15131;DHT22;7666;50.920;4.628;2023-05-10T05:06:08;12.70;99.90
15131;DHT22;7666;50.920;4.628;2023-05-10T05:08:54;12.80;99.90
15131;DHT22;7666;50.920;4.628;2023-05-10T05:11:40;12.80;99.90
15131;DHT22;7666;50.920;4.628;2023-05-10T05:14:26;12.90;99.90
15131;DHT22;7666;50.920;4.628;2023-05-10T05:17:12;12.90;99.90
15131;DHT22;7666;50.920;4.628;2023-05-10T05:19:58;12.90;99.90
15131;DHT22;7666;50.920;4.628;2023-05-10T05:22:44;12.90;99.90
15131;DHT22;7666;50.920;4.628;2023-05-10T05:25:30;12.90;99.90
15131;DHT22;7666;50.920;4.628;2023-05-10T05:28:16;12.90;99.90
15131;DHT22;7666;50.920;4.628;2023-05-10T05:31:06;12.90;99.90
15131;DHT22;7666;50.920;4.628;2023-05-10T05:33:53;13.00;99.90
15131;DHT22;7666;50.920;4.628;2023-05-10T05:36:39;13.00;99.90
15131;DHT22;7666;50.920;4.628;2023-05-10T05:39:25;13.00;99.90
15131;DHT22;7666;50.920;4.628;2023-05-10T05:42:12;13.00;99.90
15131;DHT22;7666;50.920;4.628;2023-05-10T05:44:58;13.00;99.90
15131;DHT22;7666;50.920;4.628;2023-05-10T05:47:44;13.00;99.90
15131;DHT22;7666;50.920;4.628;2023-05-10T05:50:30;13.00;99.90
15131;DHT22;7666;50.920;4.628;2023-05-10T05:53:17;13.10;99.90
15131;DHT22;7666;50.920;4.628;2023-05-10T05:56:03;13.10;99.90
15131;DHT22;7666;50.920;4.628;2023-05-10T05:58:52;13.10;99.90
15131;DHT22;7666;50.920;4.628;2023-05-10T06:01:38;13.20;99.90
15131;DHT22;7666;50.920;4.628;2023-05-10T06:04:25;13.20;99.90
15131;DHT22;7666;50.920;4.628;2023-05-10T06:07:11;13.40;99.90
15131;DHT22;7666;50.920;4.628;2023-05-10T06:09:57;13.40;99.90
15131;DHT22;7666;50.920;4.628;2023-05-10T06:12:43;13.50;99.90
15131;DHT22;7666;50.920;4.628;2023-05-10T06:15:29;13.70;99.90
15131;DHT22;7666;50.920;4.628;2023-05-10T06:18:15;13.80;99.90
15131;DHT22;7666;50.920;4.628;2023-05-10T06:21:01;13.80;99.90
15131;DHT22;7666;50.920;4.628;2023-05-10T06:23:47;13.70;99.90
15131;DHT22;7666;50.920;4.628;2023-05-10T06:26:33;13.70;99.90
15131;DHT22;7666;50.920;4.628;2023-05-10T06:29:19;13.80;99.90
15131;DHT22;7666;50.920;4.628;2023-05-10T06:32:05;13.80;99.90
15131;DHT22;7666;50.920;4.628;2023-05-10T06:34:51;13.80;99.90
15131;DHT22;7666;50.920;4.628;2023-05-10T06:37:37;13.80;99.90
15131;DHT22;7666;50.920;4.628;2023-05-10T06:40:23;13.80;99.90
15131;DHT22;7666;50.920;4.628;2023-05-10T06:43:10;13.80;99.90
15131;DHT22;7666;50.920;4.628;2023-05-10T06:45:56;13.80;99.90
15131;DHT22;7666;50.920;4.628;2023-05-10T06:48:42;13.90;99.90
15131;DHT22;7666;50.920;4.628;2023-05-10T06:51:28;14.00;99.90
15131;DHT22;7666;50.920;4.628;2023-05-10T06:54:14;14.10;99.90
15131;DHT22;7666;50.920;4.628;2023-05-10T06:57:00;14.30;99.90
15131;DHT22;7666;50.920;4.628;2023-05-10T06:59:46;14.50;99.90
15131;DHT22;7666;50.920;4.628;2023-05-10T07:02:32;14.60;99.90
15131;DHT22;7666;50.920;4.628;2023-05-10T07:05:18;14.70;99.90
15131;DHT22;7666;50.920;4.628;2023-05-10T07:08:04;14.90;99.90
15131;DHT22;7666;50.920;4.628;2023-05-10T07:10:50;14.90;99.90
15131;DHT22;7666;50.920;4.628;2023-05-10T07:13:36;14.80;99.90
15131;DHT22;7666;50.920;4.628;2023-05-10T07:16:24;14.60;99.90
15131;DHT22;7666;50.920;4.628;2023-05-10T07:19:10;14.40;99.90
15131;DHT22;7666;50.920;4.628;2023-05-10T07:21:56;14.40;99.90
15131;DHT22;7666;50.920;4.628;2023-05-10T07:24:43;14.30;99.90
15131;DHT22;7666;50.920;4.628;2023-05-10T07:27:28;14.10;99.90
15131;DHT22;7666;50.920;4.628;2023-05-10T07:30:14;14.10;99.90
15131;DHT22;7666;50.920;4.628;2023-05-10T07:33:00;14.00;99.90
15131;DHT22;7666;50.920;4.628;2023-05-10T07:35:46;13.90;99.90
15131;DHT22;7666;50.920;4.628;2023-05-10T07:38:32;13.80;99.90
15131;DHT22;7666;50.920;4.628;2023-05-10T07:41:18;13.80;99.90
15131;DHT22;7666;50.920;4.628;2023-05-10T07:44:05;13.70;99.90
15131;DHT22;7666;50.920;4.628;2023-05-10T07:46:51;13.70;99.90
15131;DHT22;7666;50.920;4.628;2023-05-10T07:49:38;13.70;99.90
15131;DHT22;7666;50.920;4.628;2023-05-10T07:52:24;13.60;99.90
15131;DHT22;7666;50.920;4.628;2023-05-10T07:55:10;13.60;99.90
15131;DHT22;7666;50.920;4.628;2023-05-10T07:57:56;13.50;99.90
15131;DHT22;7666;50.920;4.628;2023-05-10T08:00:42;13.50;99.90
15131;DHT22;7666;50.920;4.628;2023-05-10T08:03:28;13.50;99.90
15131;DHT22;7666;50.920;4.628;2023-05-10T08:06:14;13.50;99.90
15131;DHT22;7666;50.920;4.628;2023-05-10T08:09:01;13.50;99.90
15131;DHT22;7666;50.920;4.628;2023-05-10T08:11:47;13.50;99.90
15131;DHT22;7666;50.920;4.628;2023-05-10T08:14:33;13.50;99.90
15131;DHT22;7666;50.920;4.628;2023-05-10T08:17:19;13.40;99.90
15131;DHT22;7666;50.920;4.628;2023-05-10T08:20:05;13.50;99.90
15131;DHT22;7666;50.920;4.628;2023-05-10T08:22:51;13.40;99.90
15131;DHT22;7666;50.920;4.628;2023-05-10T08:25:38;13.40;99.90
15131;DHT22;7666;50.920;4.628;2023-05-10T08:28:24;13.50;99.90
15131;DHT22;7666;50.920;4.628;2023-05-10T08:31:10;13.50;99.90
15131;DHT22;7666;50.920;4.628;2023-05-10T08:33:56;13.50;99.90
15131;DHT22;7666;50.920;4.628;2023-05-10T08:36:41;13.60;99.90
15131;DHT22;7666;50.920;4.628;2023-05-10T08:39:27;13.60;99.90
15131;DHT22;7666;50.920;4.628;2023-05-10T08:42:18;13.60;99.90
15131;DHT22;7666;50.920;4.628;2023-05-10T08:45:07;13.70;99.90
15131;DHT22;7666;50.920;4.628;2023-05-10T08:47:53;13.70;99.90
15131;DHT22;7666;50.920;4.628;2023-05-10T08:50:41;13.70;99.90
15131;DHT22;7666;50.920;4.628;2023-05-10T08:53:28;13.80;99.90
15131;DHT22;7666;50.920;4.628;2023-05-10T08:56:16;13.90;99.90
15131;DHT22;7666;50.920;4.628;2023-05-10T08:59:03;14.00;99.90
15131;DHT22;7666;50.920;4.628;2023-05-10T09:01:50;14.10;99.90
15131;DHT22;7666;50.920;4.628;2023-05-10T09:04:36;14.10;99.90
15131;DHT22;7666;50.920;4.628;2023-05-10T09:07:22;14.20;99.90
15131;DHT22;7666;50.920;4.628;2023-05-10T09:10:09;14.30;99.90
15131;DHT22;7666;50.920;4.628;2023-05-10T09:12:56;14.40;99.90
15131;DHT22;7666;50.920;4.628;2023-05-10T09:15:44;14.50;99.90
15131;DHT22;7666;50.920;4.628;2023-05-10T09:18:30;14.50;99.90
15131;DHT22;7666;50.920;4.628;2023-05-10T09:21:16;14.60;99.90
15131;DHT22;7666;50.920;4.628;2023-05-10T09:24:04;14.60;99.90
15131;DHT22;7666;50.920;4.628;2023-05-10T09:26:50;14.50;99.90
15131;DHT22;7666;50.920;4.628;2023-05-10T09:29:41;14.50;99.90
15131;DHT22;7666;50.920;4.628;2023-05-10T09:32:42;14.50;99.90
15131;DHT22;7666;50.920;4.628;2023-05-10T09:35:30;14.40;99.90
15131;DHT22;7666;50.920;4.628;2023-05-10T09:38:16;14.40;99.90
15131;DHT22;7666;50.920;4.628;2023-05-10T09:41:02;14.40;99.90
15131;DHT22;7666;50.920;4.628;2023-05-10T09:43:49;14.50;99.90
15131;DHT22;7666;50.920;4.628;2023-05-10T09:46:35;14.40;99.90
15131;DHT22;7666;50.920;4.628;2023-05-10T09:49:22;14.40;99.90
15131;DHT22;7666;50.920;4.628;2023-05-10T09:52:08;14.50;99.90
15131;DHT22;7666;50.920;4.628;2023-05-10T09:54:54;14.40;99.90
15131;DHT22;7666;50.920;4.628;2023-05-10T09:57:41;14.40;99.90
15131;DHT22;7666;50.920;4.628;2023-05-10T10:00:27;14.40;99.90
15131;DHT22;7666;50.920;4.628;2023-05-10T10:03:15;14.40;99.90
15131;DHT22;7666;50.920;4.628;2023-05-10T10:06:02;14.40;99.90
15131;DHT22;7666;50.920;4.628;2023-05-10T10:08:48;14.30;99.90
15131;DHT22;7666;50.920;4.628;2023-05-10T10:11:36;14.30;99.90
15131;DHT22;7666;50.920;4.628;2023-05-10T10:14:23;14.40;99.90
15131;DHT22;7666;50.920;4.628;2023-05-10T10:17:09;14.40;99.90
15131;DHT22;7666;50.920;4.628;2023-05-10T10:19:57;14.50;99.90
15131;DHT22;7666;50.920;4.628;2023-05-10T10:22:43;14.50;99.90
15131;DHT22;7666;50.920;4.628;2023-05-10T10:25:29;14.40;99.90
15131;DHT22;7666;50.920;4.628;2023-05-10T10:28:26;14.30;99.90
15131;DHT22;7666;50.920;4.628;2023-05-10T10:31:34;14.50;99.90
15131;DHT22;7666;50.920;4.628;2023-05-10T10:34:26;14.50;99.90
15131;DHT22;7666;50.920;4.628;2023-05-10T10:37:15;14.60;99.90
15131;DHT22;7666;50.920;4.628;2023-05-10T10:40:05;14.60;99.90
15131;DHT22;7666;50.920;4.628;2023-05-10T10:43:26;14.60;99.90
15131;DHT22;7666;50.920;4.628;2023-05-10T10:46:14;14.60;99.90
15131;DHT22;7666;50.920;4.628;2023-05-10T10:49:10;14.60;99.90
15131;DHT22;7666;50.920;4.628;2023-05-10T10:52:20;14.60;99.90
15131;DHT22;7666;50.920;4.628;2023-05-10T10:55:27;14.60;99.90
15131;DHT22;7666;50.920;4.628;2023-05-10T10:58:31;14.50;99.90
15131;DHT22;7666;50.920;4.628;2023-05-10T11:01:20;14.60;99.90
15131;DHT22;7666;50.920;4.628;2023-05-10T11:07:18;14.60;99.90
15131;DHT22;7666;50.920;4.628;2023-05-10T11:10:05;14.70;99.90
15131;DHT22;7666;50.920;4.628;2023-05-10T11:13:05;14.80;99.90
15131;DHT22;7666;50.920;4.628;2023-05-10T11:15:54;14.80;99.90
15131;DHT22;7666;50.920;4.628;2023-05-10T11:18:40;14.90;99.90
15131;DHT22;7666;50.920;4.628;2023-05-10T11:21:26;15.10;99.90
15131;DHT22;7666;50.920;4.628;2023-05-10T11:24:14;15.00;99.90
15131;DHT22;7666;50.920;4.628;2023-05-10T11:27:01;15.00;99.90
15131;DHT22;7666;50.920;4.628;2023-05-10T11:29:51;15.00;99.90
15131;DHT22;7666;50.920;4.628;2023-05-10T11:32:40;15.10;99.90
15131;DHT22;7666;50.920;4.628;2023-05-10T11:35:27;15.20;99.90
15131;DHT22;7666;50.920;4.628;2023-05-10T11:38:13;15.40;99.90
15131;DHT22;7666;50.920;4.628;2023-05-10T11:40:59;15.60;99.90
15131;DHT22;7666;50.920;4.628;2023-05-10T11:43:46;15.70;99.90
15131;DHT22;7666;50.920;4.628;2023-05-10T11:46:34;15.90;99.90
15131;DHT22;7666;50.920;4.628;2023-05-10T11:49:23;16.00;99.90
15131;DHT22;7666;50.920;4.628;2023-05-10T11:52:11;16.00;99.90
15131;DHT22;7666;50.920;4.628;2023-05-10T11:54:57;16.20;99.90
15131;DHT22;7666;50.920;4.628;2023-05-10T11:57:43;16.30;99.90
15131;DHT22;7666;50.920;4.628;2023-05-10T12:00:31;16.40;99.90
15131;DHT22;7666;50.920;4.628;2023-05-10T12:03:18;16.40;99.90
15131;DHT22;7666;50.920;4.628;2023-05-10T12:06:04;16.60;99.90
15131;DHT22;7666;50.920;4.628;2023-05-10T12:08:50;16.80;99.90
15131;DHT22;7666;50.920;4.628;2023-05-10T12:11:40;17.00;99.90
15131;DHT22;7666;50.920;4.628;2023-05-10T12:14:26;17.10;99.90
15131;DHT22;7666;50.920;4.628;2023-05-10T12:17:12;17.40;99.90
15131;DHT22;7666;50.920;4.628;2023-05-10T12:20:13;17.60;99.90
15131;DHT22;7666;50.920;4.628;2023-05-10T12:23:00;17.70;99.90
15131;DHT22;7666;50.920;4.628;2023-05-10T12:25:48;17.90;99.90
15131;DHT22;7666;50.920;4.628;2023-05-10T12:28:34;17.90;99.90
15131;DHT22;7666;50.920;4.628;2023-05-10T12:31:21;17.80;99.90
15131;DHT22;7666;50.920;4.628;2023-05-10T12:34:08;17.90;99.90
15131;DHT22;7666;50.920;4.628;2023-05-10T12:36:54;17.90;99.90
15131;DHT22;7666;50.920;4.628;2023-05-10T12:39:43;18.00;99.90
15131;DHT22;7666;50.920;4.628;2023-05-10T12:42:29;17.80;99.90
15131;DHT22;7666;50.920;4.628;2023-05-10T12:45:17;17.90;99.90
15131;DHT22;7666;50.920;4.628;2023-05-10T12:48:04;17.90;99.90
15131;DHT22;7666;50.920;4.628;2023-05-10T12:50:50;17.90;99.90
15131;DHT22;7666;50.920;4.628;2023-05-10T12:53:36;17.90;99.90
15131;DHT22;7666;50.920;4.628;2023-05-10T12:56:22;17.90;99.90
15131;DHT22;7666;50.920;4.628;2023-05-10T12:59:08;17.80;99.90
15131;DHT22;7666;50.920;4.628;2023-05-10T13:01:54;17.90;99.90
15131;DHT22;7666;50.920;4.628;2023-05-10T13:04:41;17.90;99.90
15131;DHT22;7666;50.920;4.628;2023-05-10T13:07:27;17.80;99.90
15131;DHT22;7666;50.920;4.628;2023-05-10T13:10:13;17.70;99.90
15131;DHT22;7666;50.920;4.628;2023-05-10T13:12:59;17.80;99.90
15131;DHT22;7666;50.920;4.628;2023-05-10T13:15:45;17.80;99.90
15131;DHT22;7666;50.920;4.628;2023-05-10T13:18:31;17.60;99.90
15131;DHT22;7666;50.920;4.628;2023-05-10T13:21:17;17.70;99.90
15131;DHT22;7666;50.920;4.628;2023-05-10T13:24:03;17.70;99.90
15131;DHT22;7666;50.920;4.628;2023-05-10T13:26:49;17.70;99.90
15131;DHT22;7666;50.920;4.628;2023-05-10T13:29:36;17.80;99.90
15131;DHT22;7666;50.920;4.628;2023-05-10T13:32:22;17.90;99.90
15131;DHT22;7666;50.920;4.628;2023-05-10T13:35:08;17.90;99.90
15131;DHT22;7666;50.920;4.628;2023-05-10T13:37:54;17.90;99.90
15131;DHT22;7666;50.920;4.628;2023-05-10T13:40:42;17.80;99.90
15131;DHT22;7666;50.920;4.628;2023-05-10T13:43:29;17.70;99.90
15131;DHT22;7666;50.920;4.628;2023-05-10T13:46:15;17.50;99.90
15131;DHT22;7666;50.920;4.628;2023-05-10T13:49:01;17.50;99.90
15131;DHT22;7666;50.920;4.628;2023-05-10T13:51:47;17.40;99.90
15131;DHT22;7666;50.920;4.628;2023-05-10T13:54:34;17.30;99.90
15131;DHT22;7666;50.920;4.628;2023-05-10T13:57:20;17.20;99.90
15131;DHT22;7666;50.920;4.628;2023-05-10T14:00:07;17.00;99.90
15131;DHT22;7666;50.920;4.628;2023-05-10T14:02:53;17.00;99.90
15131;DHT22;7666;50.920;4.628;2023-05-10T14:05:39;17.00;99.90
15131;DHT22;7666;50.920;4.628;2023-05-10T14:08:25;17.00;99.90
15131;DHT22;7666;50.920;4.628;2023-05-10T14:11:12;16.90;99.90
15131;DHT22;7666;50.920;4.628;2023-05-10T14:13:59;16.90;99.90
15131;DHT22;7666;50.920;4.628;2023-05-10T14:16:45;17.00;99.90
15131;DHT22;7666;50.920;4.628;2023-05-10T14:19:31;17.10;99.90
15131;DHT22;7666;50.920;4.628;2023-05-10T14:22:19;17.30;99.90
15131;DHT22;7666;50.920;4.628;2023-05-10T14:25:05;17.50;99.90
15131;DHT22;7666;50.920;4.628;2023-05-10T14:27:52;17.50;99.90
15131;DHT22;7666;50.920;4.628;2023-05-10T14:30:40;17.50;99.90
15131;DHT22;7666;50.920;4.628;2023-05-10T14:33:26;17.60;99.90
15131;DHT22;7666;50.920;4.628;2023-05-10T14:36:12;17.70;99.90
15131;DHT22;7666;50.920;4.628;2023-05-10T14:38:58;17.70;99.90
15131;DHT22;7666;50.920;4.628;2023-05-10T14:41:44;17.80;99.90
15131;DHT22;7666;50.920;4.628;2023-05-10T14:44:31;17.90;99.90
15131;DHT22;7666;50.920;4.628;2023-05-10T14:47:17;18.00;99.90
15131;DHT22;7666;50.920;4.628;2023-05-10T14:50:03;17.90;99.90
15131;DHT22;7666;50.920;4.628;2023-05-10T14:52:49;17.90;99.90
15131;DHT22;7666;50.920;4.628;2023-05-10T14:55:35;17.90;99.90
15131;DHT22;7666;50.920;4.628;2023-05-10T14:58:22;17.90;99.90
15131;DHT22;7666;50.920;4.628;2023-05-10T15:01:08;17.90;99.90
15131;DHT22;7666;50.920;4.628;2023-05-10T15:03:54;17.70;99.90
15131;DHT22;7666;50.920;4.628;2023-05-10T15:06:40;17.60;99.90
15131;DHT22;7666;50.920;4.628;2023-05-10T15:09:26;17.40;99.90
15131;DHT22;7666;50.920;4.628;2023-05-10T15:12:15;17.30;99.90
15131;DHT22;7666;50.920;4.628;2023-05-10T15:15:01;17.40;99.90
15131;DHT22;7666;50.920;4.628;2023-05-10T15:17:48;17.20;99.90
15131;DHT22;7666;50.920;4.628;2023-05-10T15:20:34;17.20;99.90
15131;DHT22;7666;50.920;4.628;2023-05-10T15:23:20;17.20;99.90
15131;DHT22;7666;50.920;4.628;2023-05-10T15:26:06;17.20;99.90
15131;DHT22;7666;50.920;4.628;2023-05-10T15:28:52;17.20;99.90
15131;DHT22;7666;50.920;4.628;2023-05-10T15:31:38;17.20;99.90
15131;DHT22;7666;50.920;4.628;2023-05-10T15:34:25;17.10;99.90
15131;DHT22;7666;50.920;4.628;2023-05-10T15:37:11;17.00;99.90
15131;DHT22;7666;50.920;4.628;2023-05-10T15:39:57;16.80;99.90
15131;DHT22;7666;50.920;4.628;2023-05-10T15:42:48;16.70;99.90
15131;DHT22;7666;50.920;4.628;2023-05-10T15:45:34;16.40;99.90
15131;DHT22;7666;50.920;4.628;2023-05-10T15:48:20;15.90;99.90
15131;DHT22;7666;50.920;4.628;2023-05-10T15:51:06;15.50;99.90
15131;DHT22;7666;50.920;4.628;2023-05-10T15:53:53;15.10;99.90
15131;DHT22;7666;50.920;4.628;2023-05-10T15:56:39;15.00;99.90
15131;DHT22;7666;50.920;4.628;2023-05-10T15:59:26;14.80;99.90
15131;DHT22;7666;50.920;4.628;2023-05-10T16:02:12;14.70;99.90
15131;DHT22;7666;50.920;4.628;2023-05-10T16:04:58;14.80;99.90
15131;DHT22;7666;50.920;4.628;2023-05-10T16:07:44;14.70;99.90
15131;DHT22;7666;50.920;4.628;2023-05-10T16:10:31;14.70;99.90
15131;DHT22;7666;50.920;4.628;2023-05-10T16:13:20;14.70;99.90
15131;DHT22;7666;50.920;4.628;2023-05-10T16:16:06;14.80;99.90
15131;DHT22;7666;50.920;4.628;2023-05-10T16:18:53;14.90;99.90
15131;DHT22;7666;50.920;4.628;2023-05-10T16:21:39;14.90;99.90
15131;DHT22;7666;50.920;4.628;2023-05-10T16:24:25;15.00;99.90
15131;DHT22;7666;50.920;4.628;2023-05-10T16:27:11;15.00;99.90
15131;DHT22;7666;50.920;4.628;2023-05-10T16:29:58;15.10;99.90
15131;DHT22;7666;50.920;4.628;2023-05-10T16:32:44;15.10;99.90
15131;DHT22;7666;50.920;4.628;2023-05-10T16:35:30;15.10;99.90
15131;DHT22;7666;50.920;4.628;2023-05-10T16:38:16;15.00;99.90
15131;DHT22;7666;50.920;4.628;2023-05-10T16:41:02;14.90;99.90
15131;DHT22;7666;50.920;4.628;2023-05-10T16:43:48;14.90;99.90
15131;DHT22;7666;50.920;4.628;2023-05-10T16:46:34;14.80;99.90
15131;DHT22;7666;50.920;4.628;2023-05-10T16:49:21;14.80;99.90
15131;DHT22;7666;50.920;4.628;2023-05-10T16:52:07;14.80;99.90
15131;DHT22;7666;50.920;4.628;2023-05-10T16:54:54;14.80;99.90
15131;DHT22;7666;50.920;4.628;2023-05-10T16:57:40;14.90;99.90
15131;DHT22;7666;50.920;4.628;2023-05-10T17:00:26;15.00;99.90
15131;DHT22;7666;50.920;4.628;2023-05-10T17:03:12;15.10;99.90
15131;DHT22;7666;50.920;4.628;2023-05-10T17:05:58;15.10;99.90
15131;DHT22;7666;50.920;4.628;2023-05-10T17:08:44;15.00;99.90
15131;DHT22;7666;50.920;4.628;2023-05-10T17:11:31;14.90;99.90
15131;DHT22;7666;50.920;4.628;2023-05-10T17:14:17;14.70;99.90
15131;DHT22;7666;50.920;4.628;2023-05-10T17:17:03;14.60;99.90
15131;DHT22;7666;50.920;4.628;2023-05-10T17:19:49;14.60;99.90
15131;DHT22;7666;50.920;4.628;2023-05-10T17:22:38;14.70;99.90
15131;DHT22;7666;50.920;4.628;2023-05-10T17:25:24;14.70;99.90
15131;DHT22;7666;50.920;4.628;2023-05-10T17:28:10;14.70;99.90
15131;DHT22;7666;50.920;4.628;2023-05-10T17:30:56;14.60;99.90
15131;DHT22;7666;50.920;4.628;2023-05-10T17:33:43;14.50;99.90
15131;DHT22;7666;50.920;4.628;2023-05-10T17:36:28;14.40;99.90
15131;DHT22;7666;50.920;4.628;2023-05-10T17:39:14;14.40;99.90
15131;DHT22;7666;50.920;4.628;2023-05-10T17:42:01;14.50;99.90
15131;DHT22;7666;50.920;4.628;2023-05-10T17:44:46;14.60;99.90
15131;DHT22;7666;50.920;4.628;2023-05-10T17:47:33;14.60;99.90
15131;DHT22;7666;50.920;4.628;2023-05-10T17:50:19;14.60;99.90
15131;DHT22;7666;50.920;4.628;2023-05-10T17:53:05;14.50;99.90
15131;DHT22;7666;50.920;4.628;2023-05-10T17:55:51;14.50;99.90
15131;DHT22;7666;50.920;4.628;2023-05-10T17:58:37;14.50;99.90
15131;DHT22;7666;50.920;4.628;2023-05-10T18:01:23;14.50;99.90
15131;DHT22;7666;50.920;4.628;2023-05-10T18:04:09;14.50;99.90
15131;DHT22;7666;50.920;4.628;2023-05-10T18:06:55;14.60;99.90
15131;DHT22;7666;50.920;4.628;2023-05-10T18:09:45;14.60;99.90
15131;DHT22;7666;50.920;4.628;2023-05-10T18:12:31;14.70;99.90
15131;DHT22;7666;50.920;4.628;2023-05-10T18:15:17;14.70;99.90
15131;DHT22;7666;50.920;4.628;2023-05-10T18:18:04;14.70;99.90
15131;DHT22;7666;50.920;4.628;2023-05-10T18:20:50;14.70;99.90
15131;DHT22;7666;50.920;4.628;2023-05-10T18:23:41;14.60;99.90